• Join FlightAware (Why Join?)
  • Login
  • US Flag 
10:18AM EDT


 

Airport Tracker/Info


-or-


 

Live Flight TrackerFlight Track Log ✈ JZA8474 ✈ 10-May-2013 ✈ CYCG - CYYC

Flight Track Log - Related Links

Times and Time Zones

All times are in EDT time to prevent confusion due to time zone crossing. See the JZA8474 flight status page for this flight to view local times or setup timezone preferences in your user account.

Time Position Orientation Groundspeed Altitude Reporting Facility
EDT Latitude Longitude Course Direction KTS MPH feet Rate Location/Type
02:43PM 49.6175 -117.1011 45° Northeast  Level FlightAware Approximate
02:43PM 49.3833 -117.4333 47° Northeast 190 219 9,700  Level Vancouver Center
02:44PM 49.6640 -117.0252 49° Northeast  Level FlightAware Approximate
02:44PM 49.4167 -117.3833 44° Northeast 190 219 11,000  Level Vancouver Center
02:45PM 49.7085 -116.9463 49° Northeast  Level FlightAware Approximate
02:45PM 49.4667 -117.3167 41° Northeast 200 230 12,200  Level Vancouver Center
02:46PM 49.7529 -116.8673 49° Northeast  Level FlightAware Approximate
02:46PM 49.5000 -117.2333 58° Northeast 200 230 13,400  Level Vancouver Center
02:47PM 49.7973 -116.7882 49° Northeast  Level FlightAware Approximate
02:47PM 49.5500 -117.1833 33° Northeast 200 230 14,600  Level Vancouver Center
02:48PM 49.8434 -116.7113 47° Northeast  Level FlightAware Approximate
02:48PM 49.5833 -117.1333 44° Northeast 210 242 15,600  Level Vancouver Center
02:49PM 49.6167 -117.0333 63° Northeast 210 242 16,700 1,080 Climbing Vancouver Center
02:50PM 49.6500 -116.9833 44° Northeast 210 242 17,800 900 Climbing Vancouver Center
02:51PM 49.7000 -116.9333 33° Northeast 210 242 18,500 720 Climbing Vancouver Center
02:52PM 49.7500 -116.8667 41° Northeast 210 242 19,300 840 Climbing Vancouver Center
02:53PM 49.7667 -116.7833 73° East 210 242 20,200 840 Climbing Vancouver Center
02:54PM 49.8167 -116.7333 33° Northeast 210 242 21,000 720 Climbing Vancouver Center
02:55PM 49.8500 -116.6667 52° Northeast 210 242 21,700 720 Climbing Vancouver Center
02:56PM 49.9000 -116.5833 47° Northeast 210 242 22,500 600 Climbing Vancouver Center
02:57PM 49.9500 -116.5333 33° Northeast 210 242 23,000 240 Climbing Vancouver Center
02:58PM 49.9833 -116.4500 58° Northeast 230 265 23,000  Level Vancouver Center
02:59PM 50.0333 -116.3500 52° Northeast 250 288 23,000 -60 Level Vancouver Center
03:00PM 50.0833 -116.2667 47° Northeast 260 299 22,900  Descending Vancouver Center
03:01PM 50.1167 -116.2167 44° Northeast 270 311 23,000  Climbing Vancouver Center
03:02PM 50.1833 -116.1000 48° Northeast 270 311 23,000  Level Vancouver Center
03:03PM 50.2333 -116.0167 47° Northeast 280 322 23,000  Level Vancouver Center
03:04PM 50.2833 -115.9167 52° Northeast 280 322 23,000  Level Vancouver Center
03:05PM 50.3333 -115.8333 47° Northeast 280 322 23,000  Level Vancouver Center
03:06PM 50.4000 -115.7500 39° Northeast 280 322 23,000  Level Vancouver Center
03:07PM 50.4333 -115.6667 58° Northeast 280 322 23,000  Level Vancouver Center
03:08PM 50.4833 -115.5667 52° Northeast 280 322 23,000  Level Vancouver Center
03:09PM 50.5500 -115.4833 38° Northeast 270 311 23,000 -600 Level Vancouver Center
03:10PM 50.5833 -115.4000 58° Northeast 280 322 21,800 -1,200 Descending Vancouver Center
03:11PM 50.6500 -115.3000 44° Northeast 300 345 20,600 -1,320 Descending Vancouver Center
03:12PM 50.7000 -115.1833 56° Northeast 300 345 19,200 -1,200 Descending Vancouver Center
03:13PM 50.7667 -115.1000 38° Northeast 310 357 18,200 -1,260 Descending Vancouver Center
03:14PM 50.8167 -114.9833 56° Northeast 310 357 16,700 -1,440 Descending Vancouver Center
03:16PM 50.8833 -114.7667 64° Northeast 300 345 13,700 -1,380 Descending Edmonton Center
03:17PM 50.9167 -114.6667 62° Northeast 280 322 12,300 -1,320 Descending Edmonton Center
03:18PM 50.9333 -114.5500 77° East 280 322 11,100 -1,320 Descending Edmonton Center
03:19PM 51.0000 -114.4667 38° Northeast 260 299 9,700 -1,380 Descending Edmonton Center
03:20PM 51.0500 -114.4333 23° Northeast 250 288 8,400 -1,200 Descending Edmonton Center
03:21PM 51.1167 -114.4500 351° North 230 265 7,300 -900 Descending Edmonton Center
03:22PM 51.1833 -114.3833 32° Northeast 210 242 6,600 -420 Descending Edmonton Center
03:23PM 51.1667 -114.3000 108° East 190 219 6,500 -480 Descending Edmonton Center
03:24PM 51.1500 -114.2167 108° East 190 219 5,700 -900 Descending Edmonton Center
03:25PM 51.1333 -114.1500 112° Southeast 170 196 4,700 -1,020 Descending Edmonton Center